Time;durP1;ratioP1;P1;durP2;ratioP2;P2;SDS_P1;SDS_P2;PMS_P1;PMS_P2;Temp;Humidity;BMP_temperature;BMP_pressure;BME280_temperature;BME280_humidity;BME280_pressure;Samples;Min_cycle;Max_cycle;Signal;HPM_P1;HPM_P2
2022/02/08 00:02:13;;;;;;;33.83;15.03;;;;;;;;;;4876418;29;20040;-75
2022/02/08 00:04:39;;;;;;;24.63;9.02;;;;;;;;;;4866211;29;20517;-72
2022/02/08 00:07:07;;;;;;;29.40;14.75;;;;;;;;;;4858995;29;20376;-73
2022/02/08 00:09:34;;;;;;;31.02;12.18;;;;;;;;;;4876693;29;20387;-75
2022/02/08 00:12:00;;;;;;;21.70;8.70;;;;;;;;;;4860424;29;20068;-75
2022/02/08 00:14:26;;;;;;;29.88;13.52;;;;;;;;;;4860775;29;20068;-73
2022/02/08 00:16:52;;;;;;;19.50;8.55;;;;;;;;;;4875864;29;20048;-74
2022/02/08 00:19:18;;;;;;;15.70;6.55;;;;;;;;;;4876131;29;20045;-73
2022/02/08 00:21:44;;;;;;;13.50;6.63;;;;;;;;;;4875876;29;20029;-74
2022/02/08 00:24:10;;;;;;;17.33;6.95;;;;;;;;;;4876512;29;20119;-73
2022/02/08 00:26:37;;;;;;;14.02;6.28;;;;;;;;;;4875620;29;20128;-74
2022/02/08 00:29:04;;;;;;;20.58;8.30;;;;;;;;;;4876000;29;20048;-73
2022/02/08 00:31:30;;;;;;;19.02;9.00;;;;;;;;;;4875574;29;20037;-73
2022/02/08 00:33:56;;;;;;;21.13;9.60;;;;;;;;;;4875759;29;20045;-73
2022/02/08 00:36:22;;;;;;;18.55;8.98;;;;;;;;;;4871874;29;20036;-74
2022/02/08 00:38:49;;;;;;;16.25;6.43;;;;;;;;;;4870691;29;20431;-73
2022/02/08 00:41:16;;;;;;;13.38;6.38;;;;;;;;;;4876332;29;20108;-75
2022/02/08 00:46:17;;;;;;;13.70;6.03;;;;;;;;;;4875734;29;20075;-73
2022/02/08 00:48:53;;;;;;;14.18;5.90;;;;;;;;;;4875733;29;20124;-75
2022/02/08 00:51:21;;;;;;;12.30;4.90;;;;;;;;;;4857434;29;20034;-75
2022/02/08 00:53:47;;;;;;;10.32;3.97;;;;;;;;;;4863357;29;20025;-75
2022/02/08 00:56:13;;;;;;;8.23;3.42;;;;;;;;;;4876077;29;20468;-75
2022/02/08 00:58:39;;;;;;;12.57;4.43;;;;;;;;;;4875461;29;20473;-75
2022/02/08 01:01:06;;;;;;;10.35;4.35;;;;;;;;;;4875978;29;20056;-75
2022/02/08 01:03:32;;;;;;;12.25;5.65;;;;;;;;;;4875317;29;20036;-75
2022/02/08 01:06:08;;;;;;;15.15;6.18;;;;;;;;;;4875371;29;20033;-75
2022/02/08 01:08:36;;;;;;;12.75;6.35;;;;;;;;;;4875975;29;20033;-75
2022/02/08 01:11:03;;;;;;;14.20;5.72;;;;;;;;;;4875113;29;20204;-75
2022/02/08 01:13:30;;;;;;;13.98;5.80;;;;;;;;;;4875311;29;20166;-75
2022/02/08 01:15:56;;;;;;;16.23;6.72;;;;;;;;;;4872748;29;20117;-75
2022/02/08 01:18:23;;;;;;;19.00;6.50;;;;;;;;;;4874702;29;20091;-76
2022/02/08 01:20:51;;;;;;;15.43;5.53;;;;;;;;;;4871271;29;20129;-75
2022/02/08 01:23:17;;;;;;;17.60;5.57;;;;;;;;;;4857411;29;20037;-75
2022/02/08 01:25:59;;;;;;;15.60;6.53;;;;;;;;;;4856565;29;20117;-75
2022/02/08 01:41:56;;;;;;;16.25;7.20;;;;;;;;;;4875246;29;20047;-75
2022/02/08 01:44:39;;;;;;;18.38;7.45;;;;;;;;;;4874215;29;20040;-75
2022/02/08 01:47:17;;;;;;;14.45;5.68;;;;;;;;;;4873181;29;20041;-75
2022/02/08 01:49:59;;;;;;;23.38;8.40;;;;;;;;;;4871616;29;20056;-75
2022/02/08 01:52:26;;;;;;;21.75;9.45;;;;;;;;;;4875425;29;20134;-75
2022/02/08 01:54:53;;;;;;;19.95;8.63;;;;;;;;;;4871057;29;20068;-75
2022/02/08 01:57:19;;;;;;;21.88;9.35;;;;;;;;;;4874904;29;20061;-75
2022/02/08 01:59:45;;;;;;;21.90;8.43;;;;;;;;;;4862692;29;20049;-75
2022/02/08 02:02:11;;;;;;;15.55;7.00;;;;;;;;;;4856404;29;20061;-75
2022/02/08 02:04:37;;;;;;;13.50;7.25;;;;;;;;;;4865269;29;20120;-75
2022/02/08 02:07:03;;;;;;;12.65;5.85;;;;;;;;;;4874917;29;20365;-75
2022/02/08 02:09:29;;;;;;;13.77;6.13;;;;;;;;;;4874656;29;20419;-75
2022/02/08 02:11:56;;;;;;;17.05;6.80;;;;;;;;;;4859318;29;20043;-75
2022/02/08 02:14:22;;;;;;;11.98;5.55;;;;;;;;;;4858175;29;20060;-75
2022/02/08 02:16:59;;;;;;;13.52;5.93;;;;;;;;;;4875078;29;20041;-74
2022/02/08 02:19:28;;;;;;;15.52;5.93;;;;;;;;;;4868570;29;20567;-75
2022/02/08 02:21:55;;;;;;;13.65;5.82;;;;;;;;;;4874999;29;20040;-75
2022/02/08 02:24:21;;;;;;;12.23;4.88;;;;;;;;;;4875051;29;20049;-75
2022/02/08 02:26:47;;;;;;;12.68;5.00;;;;;;;;;;4874545;29;20165;-75
2022/02/08 02:29:16;;;;;;;14.55;5.85;;;;;;;;;;4874751;29;20151;-75
2022/02/08 02:31:44;;;;;;;15.25;6.22;;;;;;;;;;4872163;29;20043;-75
2022/02/08 02:34:10;;;;;;;14.70;6.50;;;;;;;;;;4874250;29;20506;-75
2022/02/08 02:36:40;;;;;;;13.13;5.30;;;;;;;;;;4874327;29;20125;-75
2022/02/08 02:39:06;;;;;;;11.05;5.15;;;;;;;;;;4874327;29;20037;-75
2022/02/08 02:41:39;;;;;;;10.20;4.78;;;;;;;;;;4874735;29;20037;-75
2022/02/08 02:44:06;;;;;;;14.13;5.05;;;;;;;;;;4874064;29;20041;-74
2022/02/08 02:46:32;;;;;;;10.15;3.80;;;;;;;;;;4877538;29;20029;-75
2022/02/08 02:48:58;;;;;;;11.05;4.60;;;;;;;;;;4868722;29;20044;-75
2022/02/08 02:51:25;;;;;;;14.32;5.43;;;;;;;;;;4877579;29;20033;-75
2022/02/08 02:53:51;;;;;;;12.52;5.53;;;;;;;;;;4871096;29;20045;-75
2022/02/08 02:56:17;;;;;;;14.43;6.47;;;;;;;;;;4865089;29;20037;-75
2022/02/08 02:58:43;;;;;;;15.25;7.57;;;;;;;;;;4873768;29;20500;-75
2022/02/08 03:02:09;;;;;;;12.77;6.35;;;;;;;;;;4860027;29;20042;-75
2022/02/08 03:04:49;;;;;;;11.88;5.55;;;;;;;;;;4857104;29;20038;-75
2022/02/08 03:20:24;;;;;;;13.02;6.32;;;;;;;;;;4871554;29;20128;-75
2022/02/08 03:22:50;;;;;;;30.90;18.17;;;;;;;;;;4877766;29;20085;-75
2022/02/08 03:25:16;;;;;;;28.95;16.50;;;;;;;;;;4877074;29;20041;-75
2022/02/08 03:27:42;;;;;;;23.40;12.82;;;;;;;;;;4877472;29;20599;-75
2022/02/08 03:30:08;;;;;;;23.80;12.70;;;;;;;;;;4871074;29;20041;-75
2022/02/08 03:32:34;;;;;;;19.55;11.63;;;;;;;;;;4858552;29;20041;-75
2022/02/08 03:35:00;;;;;;;12.80;6.78;;;;;;;;;;4875709;29;20045;-75
2022/02/08 03:37:29;;;;;;;9.55;4.53;;;;;;;;;;4876985;29;20033;-75
2022/02/08 03:40:02;;;;;;;10.07;3.85;;;;;;;;;;4876914;29;20048;-74
2022/02/08 03:42:46;;;;;;;10.82;3.33;;;;;;;;;;4877198;29;20024;-72
2022/02/08 03:45:14;;;;;;;9.70;3.80;;;;;;;;;;4860718;29;20362;-75
2022/02/08 03:47:40;;;;;;;9.15;3.97;;;;;;;;;;4876970;29;20467;-75
2022/02/08 03:50:07;;;;;;;9.55;3.13;;;;;;;;;;4877854;29;20069;-75
2022/02/08 03:52:33;;;;;;;8.73;3.40;;;;;;;;;;4876311;29;20036;-74
2022/02/08 03:54:59;;;;;;;9.18;3.72;;;;;;;;;;4876612;29;20048;-75
2022/02/08 03:57:26;;;;;;;8.02;3.20;;;;;;;;;;4875463;29;20541;-75
2022/02/08 03:59:52;;;;;;;15.40;5.57;;;;;;;;;;4876848;29;20040;-74
2022/02/08 04:02:37;;;;;;;13.38;5.22;;;;;;;;;;4876614;29;20037;-75
2022/02/08 04:05:21;;;;;;;9.20;3.80;;;;;;;;;;4858200;29;20118;-75
2022/02/08 04:07:55;;;;;;;7.85;3.72;;;;;;;;;;4871042;29;20029;-75
2022/02/08 04:10:24;;;;;;;10.20;4.05;;;;;;;;;;4877167;29;20059;-74
2022/02/08 04:34:44;;;;;;;35.45;14.48;;;;;;;;;;4864571;29;20604;-75
2022/02/08 04:42:21;;;;;;;19.55;12.05;;;;;;;;;;4876251;29;20041;-75
2022/02/08 04:45:17;;;;;;;9.15;4.13;;;;;;;;;;4876305;29;20136;-75
2022/02/08 04:47:40;;;;;;;8.93;4.63;;;;;;;;;;4874831;29;20060;-75
2022/02/08 04:50:06;;;;;;;9.68;4.63;;;;;;;;;;4865924;29;20033;-74
2022/02/08 04:52:33;;;;;;;10.43;5.13;;;;;;;;;;4872985;29;20043;-75
2022/02/08 04:55:33;;;;;;;10.27;5.55;;;;;;;;;;4872696;29;20041;-74
2022/02/08 05:00:48;;;;;;;5.95;2.80;;;;;;;;;;4875582;29;20048;-75
2022/02/08 05:41:44;;;;;;;13.93;5.22;;;;;;;;;;4859155;29;20153;-75
2022/02/08 05:46:57;;;;;;;19.00;7.35;;;;;;;;;;4859766;29;20037;-75
2022/02/08 05:49:26;;;;;;;14.05;5.55;;;;;;;;;;4874367;29;20041;-74
2022/02/08 05:54:19;;;;;;;16.35;6.90;;;;;;;;;;4874984;29;20113;-74
2022/02/08 05:56:49;;;;;;;19.27;7.47;;;;;;;;;;4875210;29;20484;-74
2022/02/08 05:59:15;;;;;;;17.33;7.50;;;;;;;;;;4856448;29;20061;-74
2022/02/08 06:01:42;;;;;;;15.07;7.32;;;;;;;;;;4868453;29;20048;-74
2022/02/08 06:04:10;;;;;;;14.65;6.68;;;;;;;;;;4874867;29;20068;-74
2022/02/08 06:06:36;;;;;;;19.77;8.73;;;;;;;;;;4872033;29;20129;-74
2022/02/08 06:09:02;;;;;;;30.35;12.38;;;;;;;;;;4875175;29;20075;-74
2022/02/08 06:11:28;;;;;;;27.35;10.55;;;;;;;;;;4871189;29;20048;-74
2022/02/08 06:13:54;;;;;;;25.85;10.65;;;;;;;;;;4875820;29;20519;-74
2022/02/08 06:16:22;;;;;;;20.05;7.15;;;;;;;;;;4865433;29;20041;-74
2022/02/08 06:18:48;;;;;;;17.13;6.95;;;;;;;;;;4875533;29;20040;-74
2022/02/08 06:21:14;;;;;;;18.80;6.00;;;;;;;;;;4875396;29;20606;-74
2022/02/08 06:23:40;;;;;;;14.52;6.65;;;;;;;;;;4863994;29;20033;-74
2022/02/08 06:26:07;;;;;;;22.98;9.27;;;;;;;;;;4863236;29;20064;-74
2022/02/08 06:28:33;;;;;;;21.33;9.98;;;;;;;;;;4878145;29;20037;-74
2022/02/08 06:30:59;;;;;;;19.92;9.35;;;;;;;;;;4866215;29;20041;-74
2022/02/08 06:33:25;;;;;;;19.83;8.05;;;;;;;;;;4877638;29;20149;-76
2022/02/08 06:35:51;;;;;;;17.60;7.60;;;;;;;;;;4877376;29;20072;-74
2022/02/08 06:38:19;;;;;;;16.42;7.65;;;;;;;;;;4872107;29;20151;-74
2022/02/08 06:40:49;;;;;;;14.82;7.35;;;;;;;;;;4863955;29;20483;-74
2022/02/08 06:43:16;;;;;;;23.38;9.50;;;;;;;;;;4875462;29;20040;-74
2022/02/08 06:45:42;;;;;;;17.02;7.82;;;;;;;;;;4874009;29;20025;-74
2022/02/08 06:48:09;;;;;;;19.75;8.90;;;;;;;;;;4865650;29;20069;-74
2022/02/08 06:50:36;;;;;;;20.20;8.88;;;;;;;;;;4878098;29;20041;-74
2022/02/08 06:53:02;;;;;;;15.45;7.97;;;;;;;;;;4878527;29;20037;-74
2022/02/08 06:55:28;;;;;;;17.20;6.57;;;;;;;;;;4871620;29;20117;-74
2022/02/08 07:00:29;;;;;;;16.40;8.85;;;;;;;;;;4877667;29;20479;-74
2022/02/08 07:02:56;;;;;;;17.50;7.45;;;;;;;;;;4870570;29;20095;-75
2022/02/08 07:05:22;;;;;;;17.10;6.57;;;;;;;;;;4871656;29;20048;-74
2022/02/08 07:07:48;;;;;;;22.77;9.25;;;;;;;;;;4862052;29;20892;-74
2022/02/08 07:10:14;;;;;;;24.70;10.00;;;;;;;;;;4877894;29;20947;-74
2022/02/08 07:12:41;;;;;;;29.15;10.25;;;;;;;;;;4872663;29;20168;-74
2022/02/08 07:15:12;;;;;;;44.05;17.38;;;;;;;;;;4877456;29;20097;-74
2022/02/08 07:17:38;;;;;;;44.83;17.85;;;;;;;;;;4878063;29;20043;-74
2022/02/08 07:20:04;;;;;;;43.92;20.48;;;;;;;;;;4877528;29;20044;-74
2022/02/08 07:22:31;;;;;;;36.58;18.27;;;;;;;;;;4868283;29;20033;-74
2022/02/08 07:24:58;;;;;;;32.45;16.95;;;;;;;;;;4868045;29;20046;-74
2022/02/08 07:27:24;;;;;;;28.35;12.98;;;;;;;;;;4876127;29;20133;-74
2022/02/08 07:29:52;;;;;;;24.85;11.27;;;;;;;;;;4878049;29;20045;-74
2022/02/08 07:32:26;;;;;;;22.67;10.10;;;;;;;;;;4863848;29;20032;-74
2022/02/08 07:35:04;;;;;;;24.00;10.07;;;;;;;;;;4872702;29;20080;-74
2022/02/08 07:37:45;;;;;;;25.42;10.27;;;;;;;;;;4872952;29;20043;-74
2022/02/08 07:40:16;;;;;;;20.63;9.38;;;;;;;;;;4873883;29;20045;-74
2022/02/08 07:42:42;;;;;;;21.77;9.73;;;;;;;;;;4859658;29;20057;-74
2022/02/08 07:45:08;;;;;;;20.42;10.07;;;;;;;;;;4866555;29;20064;-74
2022/02/08 07:47:34;;;;;;;27.33;14.48;;;;;;;;;;4868608;29;20037;-75
2022/02/08 07:50:00;;;;;;;37.88;18.23;;;;;;;;;;4872694;29;20055;-74
2022/02/08 07:52:26;;;;;;;39.00;18.67;;;;;;;;;;4874260;29;20704;-74
2022/02/08 07:54:52;;;;;;;37.60;20.58;;;;;;;;;;4871920;29;20137;-74
2022/02/08 07:57:18;;;;;;;38.10;18.55;;;;;;;;;;4869057;29;20060;-74
2022/02/08 07:59:44;;;;;;;35.55;20.58;;;;;;;;;;4871621;29;20089;-74
2022/02/08 08:02:11;;;;;;;44.28;22.63;;;;;;;;;;4867355;29;20037;-74
2022/02/08 08:04:37;;;;;;;34.97;15.35;;;;;;;;;;4869116;29;20128;-74
2022/02/08 08:07:03;;;;;;;33.72;13.88;;;;;;;;;;4872633;29;20033;-74
2022/02/08 08:09:30;;;;;;;36.20;14.30;;;;;;;;;;4876122;29;20698;-74
2022/02/08 08:11:56;;;;;;;33.90;15.55;;;;;;;;;;4876278;29;20061;-75
2022/02/08 08:14:24;;;;;;;29.52;13.98;;;;;;;;;;4876304;29;20782;-74
2022/02/08 08:21:46;;;;;;;29.67;15.63;;;;;;;;;;4875912;29;20041;-74
2022/02/08 08:24:13;;;;;;;32.08;13.45;;;;;;;;;;4871661;29;20033;-74
2022/02/08 08:26:39;;;;;;;33.00;15.15;;;;;;;;;;4866368;29;20060;-74
2022/02/08 08:29:06;;;;;;;34.10;14.82;;;;;;;;;;4857842;29;20109;-74
2022/02/08 08:31:32;;;;;;;41.53;18.92;;;;;;;;;;4865450;29;20081;-74
2022/02/08 08:33:58;;;;;;;41.83;17.75;;;;;;;;;;4873798;29;21957;-74
2022/02/08 08:36:25;;;;;;;39.42;16.23;;;;;;;;;;4872591;29;20033;-74
2022/02/08 08:38:53;;;;;;;43.65;14.98;;;;;;;;;;4870010;29;20038;-74
2022/02/08 08:51:47;;;;;;;24.38;11.77;;;;;;;;;;4872203;29;20137;-74
2022/02/08 08:54:13;;;;;;;24.05;12.68;;;;;;;;;;4868066;29;20090;-74
2022/02/08 08:56:40;;;;;;;30.45;13.05;;;;;;;;;;4872672;29;20037;-74
2022/02/08 08:59:08;;;;;;;25.58;10.50;;;;;;;;;;4875551;29;20060;-74
2022/02/08 09:01:34;;;;;;;22.15;8.63;;;;;;;;;;4866995;29;20033;-74
2022/02/08 09:04:00;;;;;;;21.85;8.60;;;;;;;;;;4869580;29;20085;-74
2022/02/08 09:06:27;;;;;;;24.50;9.82;;;;;;;;;;4868015;29;20028;-72
2022/02/08 09:08:53;;;;;;;26.88;12.05;;;;;;;;;;4859619;29;20467;-72
2022/02/08 09:14:10;;;;;;;17.88;7.00;;;;;;;;;;4864641;29;20047;-72
2022/02/08 09:16:57;;;;;;;15.77;6.45;;;;;;;;;;4873352;29;20025;-73
2022/02/08 09:24:58;;;;;;;16.90;5.97;;;;;;;;;;4875137;29;20376;-72
2022/02/08 09:27:49;;;;;;;15.80;6.22;;;;;;;;;;4866061;29;20041;-72
2022/02/08 09:30:20;;;;;;;15.95;6.03;;;;;;;;;;4873082;29;20044;-73
2022/02/08 09:32:53;;;;;;;18.03;4.47;;;;;;;;;;4875284;29;20068;-72
2022/02/08 09:35:19;;;;;;;13.35;4.45;;;;;;;;;;4868690;29;20037;-72
2022/02/08 09:37:46;;;;;;;14.57;4.30;;;;;;;;;;4867309;29;20038;-72
2022/02/08 09:40:13;;;;;;;14.25;5.15;;;;;;;;;;4873505;29;20041;-72
2022/02/08 09:42:41;;;;;;;15.20;5.63;;;;;;;;;;4874596;29;20025;-72
2022/02/08 09:45:11;;;;;;;16.08;6.38;;;;;;;;;;4875337;29;20861;-72
2022/02/08 09:48:13;;;;;;;16.38;5.78;;;;;;;;;;4862893;29;20029;-72
2022/02/08 09:50:33;;;;;;;17.15;5.10;;;;;;;;;;4863933;29;20045;-72
2022/02/08 09:53:01;;;;;;;11.82;3.92;;;;;;;;;;4865231;29;20033;-73
2022/02/08 09:55:28;;;;;;;11.70;3.30;;;;;;;;;;4876191;29;20068;-72
2022/02/08 09:57:54;;;;;;;9.82;3.47;;;;;;;;;;4878447;29;20063;-72
2022/02/08 10:00:22;;;;;;;11.23;4.13;;;;;;;;;;4869710;29;20049;-72
2022/02/08 10:02:48;;;;;;;15.68;4.75;;;;;;;;;;4867289;29;20049;-72
2022/02/08 10:05:14;;;;;;;13.77;4.72;;;;;;;;;;4876995;29;20037;-72
2022/02/08 10:07:41;;;;;;;12.05;4.78;;;;;;;;;;4874136;29;20071;-72
2022/02/08 10:10:11;;;;;;;10.35;4.38;;;;;;;;;;4870466;29;20052;-72
2022/02/08 10:13:00;;;;;;;12.38;3.92;;;;;;;;;;4873180;29;20165;-72
2022/02/08 10:23:55;;;;;;;11.40;4.70;;;;;;;;;;4874486;29;20052;-72
2022/02/08 10:26:32;;;;;;;19.38;7.43;;;;;;;;;;4872159;29;20036;-72
2022/02/08 10:29:03;;;;;;;19.83;5.78;;;;;;;;;;4877995;29;20065;-72
2022/02/08 10:39:45;;;;;;;11.23;5.43;;;;;;;;;;4877125;29;20056;-72
2022/02/08 10:42:15;;;;;;;10.40;4.00;;;;;;;;;;4868318;29;20327;-72
2022/02/08 10:44:41;;;;;;;7.53;3.63;;;;;;;;;;4874898;29;20071;-72
2022/02/08 10:47:07;;;;;;;10.90;3.42;;;;;;;;;;4877437;29;20037;-72
2022/02/08 10:49:34;;;;;;;5.00;1.90;;;;;;;;;;4877715;29;20063;-72
2022/02/08 10:52:02;;;;;;;6.10;2.13;;;;;;;;;;4875649;29;20089;-72
2022/02/08 10:54:38;;;;;;;9.27;2.83;;;;;;;;;;4873744;29;20143;-72
2022/02/08 10:57:11;;;;;;;6.88;2.67;;;;;;;;;;4873285;29;20479;-72
2022/02/08 10:59:46;;;;;;;10.48;3.05;;;;;;;;;;4869887;29;20037;-72
2022/02/08 11:02:23;;;;;;;8.75;3.50;;;;;;;;;;4877237;29;20044;-72
2022/02/08 11:04:58;;;;;;;10.88;3.55;;;;;;;;;;4875633;29;20036;-72
2022/02/08 11:13:27;;;;;;;8.50;1.60;;;;;;;;;;4875548;29;20051;-72
2022/02/08 11:16:03;;;;;;;7.90;2.27;;;;;;;;;;4872127;29;20041;-72
2022/02/08 11:18:58;;;;;;;6.72;2.25;;;;;;;;;;4874652;29;20124;-72
2022/02/08 11:26:46;;;;;;;5.72;2.15;;;;;;;;;;4866148;29;20133;-72
2022/02/08 11:29:35;;;;;;;7.43;2.35;;;;;;;;;;4870360;29;20731;-72
2022/02/08 11:32:14;;;;;;;4.47;1.60;;;;;;;;;;4874369;29;20033;-72
2022/02/08 11:46:00;;;;;;;5.97;1.23;;;;;;;;;;4876544;29;20056;-72
2022/02/08 11:51:36;;;;;;;6.10;1.75;;;;;;;;;;4870268;29;20060;-72
2022/02/08 12:07:16;;;;;;;6.47;1.75;;;;;;;;;;4871750;29;20037;-72
2022/02/08 12:34:37;;;;;;;8.73;2.88;;;;;;;;;;4875687;29;20072;-72
2022/02/08 12:51:37;;;;;;;8.32;2.50;;;;;;;;;;4867703;29;20418;-72
2022/02/08 12:56:27;;;;;;;10.93;2.67;;;;;;;;;;4874742;29;20188;-72
2022/02/08 14:02:11;;;;;;;4.13;1.23;;;;;;;;;;4874919;29;20626;-73
2022/02/08 14:07:32;;;;;;;9.27;2.10;;;;;;;;;;4863230;29;20418;-72
2022/02/08 14:25:27;;;;;;;3.15;0.70;;;;;;;;;;4815943;29;20129;-72
2022/02/08 14:30:55;;;;;;;3.28;0.82;;;;;;;;;;4867187;29;20055;-72
2022/02/08 14:36:21;;;;;;;4.65;1.00;;;;;;;;;;4871809;29;20044;-72
2022/02/08 15:09:20;;;;;;;7.22;2.08;;;;;;;;;;4839499;29;20813;-72
2022/02/08 15:12:00;;;;;;;4.50;1.30;;;;;;;;;;4863400;29;20055;-72
2022/02/08 15:14:28;;;;;;;4.85;1.08;;;;;;;;;;4870089;29;20030;-72
2022/02/08 15:16:54;;;;;;;3.80;1.00;;;;;;;;;;4877387;29;20094;-72
2022/02/08 15:19:20;;;;;;;5.63;1.00;;;;;;;;;;4874978;29;20072;-72
2022/02/08 15:21:46;;;;;;;4.85;1.00;;;;;;;;;;4876537;29;20056;-72
2022/02/08 15:24:14;;;;;;;6.32;1.50;;;;;;;;;;4869188;29;20069;-72
2022/02/08 15:26:46;;;;;;;4.63;0.93;;;;;;;;;;4874879;29;20050;-72
2022/02/08 15:29:12;;;;;;;6.22;0.90;;;;;;;;;;4867534;29;20571;-72
2022/02/08 15:31:38;;;;;;;5.35;0.57;;;;;;;;;;4869338;29;20833;-72
2022/02/08 15:34:04;;;;;;;3.92;0.82;;;;;;;;;;4876225;29;20383;-72
2022/02/08 15:36:31;;;;;;;5.13;1.00;;;;;;;;;;4875791;29;20098;-72
2022/02/08 15:39:05;;;;;;;6.97;0.70;;;;;;;;;;4866749;29;20081;-72
2022/02/08 15:41:34;;;;;;;4.40;0.60;;;;;;;;;;4875358;29;20041;-72
2022/02/08 15:44:00;;;;;;;5.18;0.60;;;;;;;;;;4859346;29;20033;-72
2022/02/08 15:46:26;;;;;;;6.55;0.63;;;;;;;;;;4876304;29;20096;-72
2022/02/08 15:48:54;;;;;;;5.32;0.60;;;;;;;;;;4865654;29;20064;-72
2022/02/08 16:09:26;;;;;;;5.43;1.60;;;;;;;;;;4869694;29;20065;-73
2022/02/08 16:12:04;;;;;;;7.30;2.05;;;;;;;;;;4874721;29;20068;-72
2022/02/08 16:17:12;;;;;;;4.80;1.35;;;;;;;;;;4873237;29;20163;-72
2022/02/08 16:19:55;;;;;;;9.00;2.53;;;;;;;;;;4861330;29;20033;-72
2022/02/08 16:25:39;;;;;;;18.13;7.57;;;;;;;;;;4831911;29;20039;-72
2022/02/08 16:33:55;;;;;;;17.00;8.82;;;;;;;;;;4874401;29;20051;-72
2022/02/08 16:50:02;;;;;;;28.63;13.68;;;;;;;;;;4876424;29;20084;-72
2022/02/08 16:52:53;;;;;;;28.13;12.55;;;;;;;;;;4874460;29;20121;-72
2022/02/08 16:58:08;;;;;;;31.17;13.70;;;;;;;;;;4875036;29;20542;-72
2022/02/08 17:00:35;;;;;;;32.33;17.33;;;;;;;;;;4874882;29;20169;-73
2022/02/08 17:03:05;;;;;;;36.88;16.25;;;;;;;;;;4868349;29;20032;-72
2022/02/08 17:05:31;;;;;;;37.55;18.67;;;;;;;;;;4874417;29;20033;-72
2022/02/08 17:07:58;;;;;;;27.73;14.57;;;;;;;;;;4870723;29;20392;-72
2022/02/08 17:13:06;;;;;;;24.27;12.75;;;;;;;;;;4875201;29;20849;-73
2022/02/08 17:18:49;;;;;;;23.13;11.10;;;;;;;;;;4874073;29;20052;-74
2022/02/08 17:46:05;;;;;;;26.27;15.43;;;;;;;;;;4871116;29;20853;-74
2022/02/08 17:48:35;;;;;;;26.77;13.38;;;;;;;;;;4871010;29;20830;-73
2022/02/08 17:51:01;;;;;;;23.77;12.32;;;;;;;;;;4876164;29;20048;-73
2022/02/08 17:53:27;;;;;;;31.15;19.88;;;;;;;;;;4875517;29;20123;-73
2022/02/08 17:55:54;;;;;;;29.42;18.48;;;;;;;;;;4874332;29;20565;-74
2022/02/08 17:58:20;;;;;;;29.55;15.57;;;;;;;;;;4873617;29;20483;-74
2022/02/08 18:00:46;;;;;;;25.90;14.18;;;;;;;;;;4869767;29;20550;-74
2022/02/08 18:03:12;;;;;;;31.25;13.85;;;;;;;;;;4871541;29;20040;-73
2022/02/08 18:05:41;;;;;;;27.15;15.40;;;;;;;;;;4873437;29;20033;-74
2022/02/08 18:08:09;;;;;;;29.77;17.80;;;;;;;;;;4872391;29;20033;-73
2022/02/08 18:10:36;;;;;;;28.67;18.27;;;;;;;;;;4872578;29;20037;-73
2022/02/08 18:13:03;;;;;;;26.95;17.02;;;;;;;;;;4873126;29;20072;-73
2022/02/08 18:15:29;;;;;;;27.80;15.25;;;;;;;;;;4871215;29;20554;-73
2022/02/08 18:18:00;;;;;;;33.30;18.88;;;;;;;;;;4875691;29;20041;-73
2022/02/08 18:20:47;;;;;;;40.47;22.02;;;;;;;;;;4878325;29;20033;-73
2022/02/08 18:23:39;;;;;;;33.70;17.15;;;;;;;;;;4872647;29;20093;-73
2022/02/08 19:07:30;;;;;;;38.78;23.40;;;;;;;;;;4878272;29;20044;-74
2022/02/08 19:10:15;;;;;;;39.30;23.52;;;;;;;;;;4869494;29;20049;-74
2022/02/08 19:12:56;;;;;;;38.88;23.60;;;;;;;;;;4853513;29;20035;-74
2022/02/08 19:15:50;;;;;;;37.13;19.95;;;;;;;;;;4873916;29;20037;-74
2022/02/08 19:23:32;;;;;;;27.42;14.38;;;;;;;;;;4871570;29;20068;-74
2022/02/08 19:25:58;;;;;;;25.35;13.77;;;;;;;;;;4870194;29;20045;-74
2022/02/08 19:28:24;;;;;;;24.60;12.80;;;;;;;;;;4871933;29;20641;-74
2022/02/08 19:30:52;;;;;;;21.58;11.52;;;;;;;;;;4871380;29;20136;-74
2022/02/08 19:33:18;;;;;;;15.65;7.15;;;;;;;;;;4873681;29;20445;-74
2022/02/08 19:35:44;;;;;;;19.48;9.98;;;;;;;;;;4874523;29;20037;-74
2022/02/08 19:38:12;;;;;;;20.98;11.00;;;;;;;;;;4868724;29;20036;-74
2022/02/08 19:40:38;;;;;;;35.72;18.98;;;;;;;;;;4872400;29;20033;-74
2022/02/08 19:43:06;;;;;;;55.92;31.30;;;;;;;;;;4873778;29;20029;-74
2022/02/08 19:45:39;;;;;;;64.07;33.90;;;;;;;;;;4874535;29;20551;-74
2022/02/08 19:48:06;;;;;;;69.35;36.95;;;;;;;;;;4874307;29;20081;-74
2022/02/08 19:50:34;;;;;;;56.58;31.92;;;;;;;;;;4874273;29;20041;-74
2022/02/08 19:53:01;;;;;;;56.83;31.08;;;;;;;;;;4872587;29;20029;-74
2022/02/08 19:55:38;;;;;;;46.05;24.70;;;;;;;;;;4872138;29;20498;-74
2022/02/08 19:58:11;;;;;;;42.65;21.50;;;;;;;;;;4872462;29;20064;-74
2022/02/08 20:00:38;;;;;;;;;;;;;;;;;;4872477;29;20483;-74
2022/02/08 20:03:07;;;;;;;42.97;22.60;;;;;;;;;;4872325;29;19967;-75
2022/02/08 20:05:33;;;;;;;45.20;22.80;;;;;;;;;;4871850;29;20480;-74
2022/02/08 20:08:00;;;;;;;43.33;22.05;;;;;;;;;;4874228;29;20059;-74
2022/02/08 20:10:29;;;;;;;52.63;25.33;;;;;;;;;;4866386;29;20123;-74
2022/02/08 20:12:56;;;;;;;45.95;26.48;;;;;;;;;;4869938;29;20071;-74
2022/02/08 20:15:22;;;;;;;35.75;21.05;;;;;;;;;;4870660;29;20056;-74
2022/02/08 20:17:50;;;;;;;42.15;24.42;;;;;;;;;;4868599;29;20132;-74
2022/02/08 20:20:17;;;;;;;36.60;18.88;;;;;;;;;;4875841;29;20813;-74
2022/02/08 20:22:56;;;;;;;32.72;19.20;;;;;;;;;;4869057;29;20031;-74
2022/02/08 20:25:23;;;;;;;35.33;17.35;;;;;;;;;;4874722;29;20045;-74
2022/02/08 20:27:52;;;;;;;34.53;16.77;;;;;;;;;;4869643;29;20043;-74
2022/02/08 20:30:22;;;;;;;35.45;18.35;;;;;;;;;;4866126;29;20036;-74
2022/02/08 20:32:50;;;;;;;33.47;17.90;;;;;;;;;;4871992;29;20825;-74
2022/02/08 20:35:18;;;;;;;29.80;16.13;;;;;;;;;;4875329;29;20037;-74
2022/02/08 20:37:44;;;;;;;27.60;15.77;;;;;;;;;;4849475;29;20140;-74
2022/02/08 20:40:10;;;;;;;33.33;17.00;;;;;;;;;;4869186;29;20173;-74
2022/02/08 20:42:36;;;;;;;32.33;17.27;;;;;;;;;;4869517;29;20037;-74
2022/02/08 20:45:03;;;;;;;27.00;16.75;;;;;;;;;;4870071;29;20042;-74
2022/02/08 20:47:29;;;;;;;29.00;16.40;;;;;;;;;;4873475;29;20367;-74
2022/02/08 20:50:10;;;;;;;28.23;16.52;;;;;;;;;;4873814;29;20052;-74
2022/02/08 20:52:40;;;;;;;38.90;21.65;;;;;;;;;;4865983;29;20032;-74
2022/02/08 20:55:09;;;;;;;30.20;19.35;;;;;;;;;;4875393;29;20120;-74
2022/02/08 20:57:37;;;;;;;38.53;23.58;;;;;;;;;;4871657;29;20049;-74
2022/02/08 21:00:10;;;;;;;35.08;19.80;;;;;;;;;;4874888;29;20037;-74
2022/02/08 21:02:40;;;;;;;33.67;19.83;;;;;;;;;;4869480;29;20057;-74
2022/02/08 21:07:42;;;;;;;39.05;23.52;;;;;;;;;;4873598;29;20403;-74
2022/02/08 21:10:08;;;;;;;38.80;22.52;;;;;;;;;;4874948;29;20152;-74
2022/02/08 21:12:42;;;;;;;33.00;20.60;;;;;;;;;;4864838;29;20076;-74
2022/02/08 21:15:09;;;;;;;31.92;18.33;;;;;;;;;;4868491;29;20128;-74
2022/02/08 21:17:36;;;;;;;32.30;21.15;;;;;;;;;;4869577;29;20049;-74
2022/02/08 21:20:03;;;;;;;34.22;20.08;;;;;;;;;;4875637;29;20041;-74
2022/02/08 21:22:29;;;;;;;37.08;19.85;;;;;;;;;;4859175;29;20036;-73
2022/02/08 21:24:55;;;;;;;31.65;19.08;;;;;;;;;;4869277;29;20036;-74
2022/02/08 21:27:24;;;;;;;31.67;17.58;;;;;;;;;;4872521;29;20061;-74
2022/02/08 21:49:48;;;;;;;35.55;20.60;;;;;;;;;;4873822;29;20522;-74
2022/02/08 21:54:31;;;;;;;37.33;20.75;;;;;;;;;;4875513;29;20094;-74
2022/02/08 21:56:58;;;;;;;30.27;16.10;;;;;;;;;;4878321;29;20395;-74
2022/02/08 21:59:28;;;;;;;27.55;15.23;;;;;;;;;;4868161;29;20114;-74
2022/02/08 22:01:55;;;;;;;33.05;17.35;;;;;;;;;;4874482;29;20416;-74
2022/02/08 22:04:21;;;;;;;29.30;16.27;;;;;;;;;;4875817;29;20068;-74
2022/02/08 22:06:49;;;;;;;23.85;13.63;;;;;;;;;;4875194;29;20486;-75
2022/02/08 22:09:20;;;;;;;22.98;13.05;;;;;;;;;;4864078;29;20539;-74
2022/02/08 22:22:51;;;;;;;26.83;12.90;;;;;;;;;;4876033;29;20072;-74
2022/02/08 22:28:12;;;;;;;36.92;15.98;;;;;;;;;;4878240;29;20089;-74
2022/02/08 22:33:10;;;;;;;30.85;14.85;;;;;;;;;;4860177;29;20048;-74
2022/02/08 22:35:41;;;;;;;31.52;14.55;;;;;;;;;;4859415;29;20110;-74
2022/02/08 22:38:30;;;;;;;33.65;16.08;;;;;;;;;;4864907;29;20132;-74
2022/02/08 22:40:59;;;;;;;34.83;15.35;;;;;;;;;;4871427;29;20491;-74
2022/02/08 22:43:34;;;;;;;35.20;15.82;;;;;;;;;;4865550;29;20059;-74
2022/02/08 22:46:00;;;;;;;36.95;16.05;;;;;;;;;;4878491;29;20112;-74
2022/02/08 22:48:27;;;;;;;34.88;16.35;;;;;;;;;;4877374;29;20104;-74
2022/02/08 22:50:53;;;;;;;35.58;15.20;;;;;;;;;;4875498;29;20065;-74
2022/02/08 22:53:19;;;;;;;38.40;16.35;;;;;;;;;;4861773;29;20524;-74
2022/02/08 22:55:45;;;;;;;34.70;17.38;;;;;;;;;;4878507;29;20041;-74
2022/02/08 22:58:11;;;;;;;26.63;13.23;;;;;;;;;;4878155;29;20571;-74
2022/02/08 23:00:39;;;;;;;32.78;14.55;;;;;;;;;;4874828;29;20048;-74
2022/02/08 23:03:06;;;;;;;56.03;26.00;;;;;;;;;;4859422;29;20036;-74
2022/02/08 23:05:33;;;;;;;49.85;24.80;;;;;;;;;;4859067;29;20037;-74
2022/02/08 23:08:00;;;;;;;46.95;20.25;;;;;;;;;;4867507;29;20033;-74